sensor_id;sensor_type;location;lat;lon;timestamp;P1;durP1;ratioP1;P2;durP2;ratioP2
22260;SDS011;11299;43.202;27.920;2023-04-16T00:01:37;12.15;;;6.57;;
22260;SDS011;11299;43.202;27.920;2023-04-16T00:04:03;18.92;;;7.57;;
22260;SDS011;11299;43.202;27.920;2023-04-16T00:06:28;13.57;;;6.13;;
22260;SDS011;11299;43.202;27.920;2023-04-16T00:08:54;15.65;;;6.70;;
22260;SDS011;11299;43.202;27.920;2023-04-16T00:11:19;14.85;;;6.78;;
22260;SDS011;11299;43.202;27.920;2023-04-16T00:13:45;16.27;;;7.22;;
22260;SDS011;11299;43.202;27.920;2023-04-16T00:16:10;18.10;;;7.82;;
22260;SDS011;11299;43.202;27.920;2023-04-16T00:18:36;17.02;;;7.32;;
22260;SDS011;11299;43.202;27.920;2023-04-16T00:21:01;13.18;;;6.00;;
22260;SDS011;11299;43.202;27.920;2023-04-16T00:23:27;14.35;;;7.28;;
22260;SDS011;11299;43.202;27.920;2023-04-16T00:25:52;15.68;;;7.45;;
22260;SDS011;11299;43.202;27.920;2023-04-16T00:28:21;17.02;;;8.23;;
22260;SDS011;11299;43.202;27.920;2023-04-16T00:30:46;14.35;;;7.03;;
22260;SDS011;11299;43.202;27.920;2023-04-16T00:33:12;15.27;;;7.28;;
22260;SDS011;11299;43.202;27.920;2023-04-16T00:35:37;13.55;;;7.20;;
22260;SDS011;11299;43.202;27.920;2023-04-16T00:38:02;18.15;;;7.60;;
22260;SDS011;11299;43.202;27.920;2023-04-16T00:40:28;18.30;;;8.52;;
22260;SDS011;11299;43.202;27.920;2023-04-16T00:42:54;15.82;;;7.80;;
22260;SDS011;11299;43.202;27.920;2023-04-16T00:45:19;14.65;;;8.20;;
22260;SDS011;11299;43.202;27.920;2023-04-16T00:47:45;16.52;;;8.85;;
22260;SDS011;11299;43.202;27.920;2023-04-16T00:50:11;14.63;;;7.50;;
22260;SDS011;11299;43.202;27.920;2023-04-16T00:52:37;15.68;;;7.30;;
22260;SDS011;11299;43.202;27.920;2023-04-16T00:55:03;15.32;;;7.43;;
22260;SDS011;11299;43.202;27.920;2023-04-16T00:57:31;16.42;;;7.32;;
22260;SDS011;11299;43.202;27.920;2023-04-16T00:59:56;15.20;;;7.53;;
22260;SDS011;11299;43.202;27.920;2023-04-16T01:02:22;21.02;;;8.25;;
22260;SDS011;11299;43.202;27.920;2023-04-16T01:04:48;18.40;;;8.98;;
22260;SDS011;11299;43.202;27.920;2023-04-16T01:07:14;20.75;;;9.15;;
22260;SDS011;11299;43.202;27.920;2023-04-16T01:09:40;19.08;;;7.97;;
22260;SDS011;11299;43.202;27.920;2023-04-16T01:12:05;18.38;;;9.25;;
22260;SDS011;11299;43.202;27.920;2023-04-16T01:14:31;17.42;;;8.43;;
22260;SDS011;11299;43.202;27.920;2023-04-16T01:17:00;13.77;;;7.90;;
22260;SDS011;11299;43.202;27.920;2023-04-16T01:19:26;15.43;;;7.90;;
22260;SDS011;11299;43.202;27.920;2023-04-16T01:21:55;14.95;;;8.52;;
22260;SDS011;11299;43.202;27.920;2023-04-16T01:24:20;18.00;;;8.48;;
22260;SDS011;11299;43.202;27.920;2023-04-16T01:26:46;13.57;;;8.35;;
22260;SDS011;11299;43.202;27.920;2023-04-16T01:29:11;17.20;;;8.15;;
22260;SDS011;11299;43.202;27.920;2023-04-16T01:31:37;20.10;;;8.05;;
22260;SDS011;11299;43.202;27.920;2023-04-16T01:34:02;17.25;;;7.95;;
22260;SDS011;11299;43.202;27.920;2023-04-16T01:36:28;15.07;;;7.82;;
22260;SDS011;11299;43.202;27.920;2023-04-16T01:38:53;16.98;;;8.55;;
22260;SDS011;11299;43.202;27.920;2023-04-16T01:41:19;15.18;;;8.30;;
22260;SDS011;11299;43.202;27.920;2023-04-16T01:43:45;12.88;;;7.78;;
22260;SDS011;11299;43.202;27.920;2023-04-16T01:46:14;15.60;;;7.93;;
22260;SDS011;11299;43.202;27.920;2023-04-16T01:48:44;14.40;;;8.45;;
22260;SDS011;11299;43.202;27.920;2023-04-16T01:51:10;16.70;;;8.15;;
22260;SDS011;11299;43.202;27.920;2023-04-16T01:53:35;17.13;;;8.20;;
22260;SDS011;11299;43.202;27.920;2023-04-16T01:56:01;17.38;;;7.97;;
22260;SDS011;11299;43.202;27.920;2023-04-16T01:58:27;16.00;;;7.95;;
22260;SDS011;11299;43.202;27.920;2023-04-16T02:00:55;17.15;;;7.03;;
22260;SDS011;11299;43.202;27.920;2023-04-16T02:03:21;14.13;;;7.22;;
22260;SDS011;11299;43.202;27.920;2023-04-16T02:05:49;19.27;;;8.55;;
22260;SDS011;11299;43.202;27.920;2023-04-16T02:08:15;15.88;;;7.85;;
22260;SDS011;11299;43.202;27.920;2023-04-16T02:10:40;17.30;;;8.65;;
22260;SDS011;11299;43.202;27.920;2023-04-16T02:13:06;18.50;;;7.95;;
22260;SDS011;11299;43.202;27.920;2023-04-16T02:15:31;18.75;;;8.00;;
22260;SDS011;11299;43.202;27.920;2023-04-16T02:17:57;18.83;;;9.02;;
22260;SDS011;11299;43.202;27.920;2023-04-16T02:20:22;17.67;;;9.02;;
22260;SDS011;11299;43.202;27.920;2023-04-16T02:22:48;18.48;;;9.02;;
22260;SDS011;11299;43.202;27.920;2023-04-16T02:25:13;14.77;;;8.13;;
22260;SDS011;11299;43.202;27.920;2023-04-16T02:27:39;16.85;;;9.35;;
22260;SDS011;11299;43.202;27.920;2023-04-16T02:30:05;22.80;;;9.32;;
22260;SDS011;11299;43.202;27.920;2023-04-16T02:32:31;19.90;;;9.48;;
22260;SDS011;11299;43.202;27.920;2023-04-16T02:34:56;16.30;;;9.10;;
22260;SDS011;11299;43.202;27.920;2023-04-16T02:37:22;23.45;;;9.40;;
22260;SDS011;11299;43.202;27.920;2023-04-16T02:39:49;18.42;;;9.18;;
22260;SDS011;11299;43.202;27.920;2023-04-16T02:42:14;12.80;;;8.85;;
22260;SDS011;11299;43.202;27.920;2023-04-16T02:44:40;17.20;;;8.55;;
22260;SDS011;11299;43.202;27.920;2023-04-16T02:47:06;17.23;;;9.57;;
22260;SDS011;11299;43.202;27.920;2023-04-16T02:49:31;17.35;;;9.40;;
22260;SDS011;11299;43.202;27.920;2023-04-16T02:51:57;23.02;;;9.30;;
22260;SDS011;11299;43.202;27.920;2023-04-16T02:54:22;17.95;;;8.90;;
22260;SDS011;11299;43.202;27.920;2023-04-16T02:56:48;15.13;;;9.25;;
22260;SDS011;11299;43.202;27.920;2023-04-16T02:59:13;21.70;;;9.15;;
22260;SDS011;11299;43.202;27.920;2023-04-16T03:01:39;18.23;;;9.60;;
22260;SDS011;11299;43.202;27.920;2023-04-16T03:04:04;18.27;;;8.93;;
22260;SDS011;11299;43.202;27.920;2023-04-16T03:06:30;18.13;;;8.50;;
22260;SDS011;11299;43.202;27.920;2023-04-16T03:08:56;15.70;;;9.18;;
22260;SDS011;11299;43.202;27.920;2023-04-16T03:11:21;22.08;;;9.93;;
22260;SDS011;11299;43.202;27.920;2023-04-16T03:13:47;13.23;;;7.60;;
22260;SDS011;11299;43.202;27.920;2023-04-16T03:16:13;15.20;;;7.65;;
22260;SDS011;11299;43.202;27.920;2023-04-16T03:18:38;17.27;;;7.93;;
22260;SDS011;11299;43.202;27.920;2023-04-16T03:21:04;15.00;;;8.32;;
22260;SDS011;11299;43.202;27.920;2023-04-16T03:23:29;13.32;;;7.97;;
22260;SDS011;11299;43.202;27.920;2023-04-16T03:25:55;19.10;;;9.02;;
22260;SDS011;11299;43.202;27.920;2023-04-16T03:28:20;17.45;;;8.48;;
22260;SDS011;11299;43.202;27.920;2023-04-16T03:30:50;17.83;;;9.50;;
22260;SDS011;11299;43.202;27.920;2023-04-16T03:35:44;18.65;;;10.02;;
22260;SDS011;11299;43.202;27.920;2023-04-16T03:38:09;17.00;;;8.05;;
22260;SDS011;11299;43.202;27.920;2023-04-16T03:40:36;22.48;;;8.30;;
22260;SDS011;11299;43.202;27.920;2023-04-16T03:43:01;23.92;;;9.13;;
22260;SDS011;11299;43.202;27.920;2023-04-16T03:45:27;15.95;;;7.75;;
22260;SDS011;11299;43.202;27.920;2023-04-16T03:47:52;17.38;;;8.60;;
22260;SDS011;11299;43.202;27.920;2023-04-16T03:50:18;20.02;;;8.95;;
22260;SDS011;11299;43.202;27.920;2023-04-16T03:52:44;16.00;;;8.82;;
22260;SDS011;11299;43.202;27.920;2023-04-16T03:55:11;19.75;;;9.55;;
22260;SDS011;11299;43.202;27.920;2023-04-16T03:57:37;19.63;;;9.82;;
22260;SDS011;11299;43.202;27.920;2023-04-16T04:00:02;16.35;;;8.57;;
22260;SDS011;11299;43.202;27.920;2023-04-16T04:02:28;19.20;;;9.35;;
22260;SDS011;11299;43.202;27.920;2023-04-16T04:04:54;22.30;;;9.55;;
22260;SDS011;11299;43.202;27.920;2023-04-16T04:07:20;23.67;;;9.57;;
22260;SDS011;11299;43.202;27.920;2023-04-16T04:09:45;21.67;;;9.73;;
22260;SDS011;11299;43.202;27.920;2023-04-16T04:12:10;25.63;;;11.05;;
22260;SDS011;11299;43.202;27.920;2023-04-16T04:14:37;25.25;;;9.90;;
22260;SDS011;11299;43.202;27.920;2023-04-16T04:17:04;28.90;;;12.20;;
22260;SDS011;11299;43.202;27.920;2023-04-16T04:19:30;18.83;;;9.45;;
22260;SDS011;11299;43.202;27.920;2023-04-16T04:21:55;23.77;;;9.68;;
22260;SDS011;11299;43.202;27.920;2023-04-16T04:24:21;20.17;;;9.48;;
22260;SDS011;11299;43.202;27.920;2023-04-16T04:26:46;19.67;;;9.57;;
22260;SDS011;11299;43.202;27.920;2023-04-16T04:29:12;19.75;;;9.30;;
22260;SDS011;11299;43.202;27.920;2023-04-16T04:31:37;18.20;;;9.73;;
22260;SDS011;11299;43.202;27.920;2023-04-16T04:34:03;16.05;;;9.00;;
22260;SDS011;11299;43.202;27.920;2023-04-16T04:36:28;16.92;;;8.82;;
22260;SDS011;11299;43.202;27.920;2023-04-16T04:38:55;19.95;;;9.48;;
22260;SDS011;11299;43.202;27.920;2023-04-16T04:41:20;20.20;;;8.35;;
22260;SDS011;11299;43.202;27.920;2023-04-16T04:43:46;34.83;;;12.43;;
22260;SDS011;11299;43.202;27.920;2023-04-16T04:46:11;22.90;;;8.77;;
22260;SDS011;11299;43.202;27.920;2023-04-16T04:48:36;18.42;;;8.23;;
22260;SDS011;11299;43.202;27.920;2023-04-16T04:51:02;22.58;;;8.88;;
22260;SDS011;11299;43.202;27.920;2023-04-16T04:53:28;19.10;;;8.63;;
22260;SDS011;11299;43.202;27.920;2023-04-16T04:55:54;18.45;;;8.27;;
22260;SDS011;11299;43.202;27.920;2023-04-16T04:58:19;15.00;;;8.63;;
22260;SDS011;11299;43.202;27.920;2023-04-16T05:00:45;14.13;;;8.52;;
22260;SDS011;11299;43.202;27.920;2023-04-16T05:03:10;13.80;;;8.30;;
22260;SDS011;11299;43.202;27.920;2023-04-16T05:05:37;15.52;;;8.75;;
22260;SDS011;11299;43.202;27.920;2023-04-16T05:08:04;19.05;;;9.40;;
22260;SDS011;11299;43.202;27.920;2023-04-16T05:10:29;22.58;;;11.32;;
22260;SDS011;11299;43.202;27.920;2023-04-16T05:12:55;22.15;;;10.20;;
22260;SDS011;11299;43.202;27.920;2023-04-16T05:15:21;15.50;;;9.27;;
22260;SDS011;11299;43.202;27.920;2023-04-16T05:17:46;12.25;;;7.72;;
22260;SDS011;11299;43.202;27.920;2023-04-16T05:20:12;21.02;;;8.50;;
22260;SDS011;11299;43.202;27.920;2023-04-16T05:22:37;13.25;;;7.57;;
22260;SDS011;11299;43.202;27.920;2023-04-16T05:25:03;15.02;;;8.05;;
22260;SDS011;11299;43.202;27.920;2023-04-16T05:27:28;18.17;;;9.20;;
22260;SDS011;11299;43.202;27.920;2023-04-16T05:29:54;17.70;;;8.82;;
22260;SDS011;11299;43.202;27.920;2023-04-16T05:32:19;14.00;;;7.72;;
22260;SDS011;11299;43.202;27.920;2023-04-16T05:34:45;19.60;;;9.13;;
22260;SDS011;11299;43.202;27.920;2023-04-16T05:37:10;19.30;;;9.75;;
22260;SDS011;11299;43.202;27.920;2023-04-16T05:39:36;15.52;;;9.00;;
22260;SDS011;11299;43.202;27.920;2023-04-16T05:42:01;26.15;;;9.93;;
22260;SDS011;11299;43.202;27.920;2023-04-16T05:44:27;18.70;;;10.32;;
22260;SDS011;11299;43.202;27.920;2023-04-16T05:46:52;22.48;;;9.68;;
22260;SDS011;11299;43.202;27.920;2023-04-16T05:49:18;18.17;;;8.95;;
22260;SDS011;11299;43.202;27.920;2023-04-16T05:51:44;22.95;;;9.48;;
22260;SDS011;11299;43.202;27.920;2023-04-16T05:54:09;16.52;;;7.68;;
22260;SDS011;11299;43.202;27.920;2023-04-16T05:56:35;16.35;;;7.88;;
22260;SDS011;11299;43.202;27.920;2023-04-16T05:59:00;23.10;;;7.30;;
22260;SDS011;11299;43.202;27.920;2023-04-16T06:01:26;18.27;;;7.53;;
22260;SDS011;11299;43.202;27.920;2023-04-16T06:03:51;17.23;;;7.95;;
22260;SDS011;11299;43.202;27.920;2023-04-16T06:06:17;17.80;;;8.20;;
22260;SDS011;11299;43.202;27.920;2023-04-16T06:08:42;10.18;;;7.35;;
22260;SDS011;11299;43.202;27.920;2023-04-16T06:11:08;14.23;;;6.63;;
22260;SDS011;11299;43.202;27.920;2023-04-16T06:13:33;18.25;;;7.53;;
22260;SDS011;11299;43.202;27.920;2023-04-16T06:15:59;16.05;;;7.68;;
22260;SDS011;11299;43.202;27.920;2023-04-16T06:18:24;14.15;;;7.03;;
22260;SDS011;11299;43.202;27.920;2023-04-16T06:20:50;12.35;;;6.28;;
22260;SDS011;11299;43.202;27.920;2023-04-16T06:23:15;12.30;;;6.15;;
22260;SDS011;11299;43.202;27.920;2023-04-16T06:25:41;12.60;;;5.72;;
22260;SDS011;11299;43.202;27.920;2023-04-16T06:28:06;12.98;;;6.20;;
22260;SDS011;11299;43.202;27.920;2023-04-16T06:30:32;11.57;;;5.70;;
22260;SDS011;11299;43.202;27.920;2023-04-16T06:32:57;14.02;;;5.43;;
22260;SDS011;11299;43.202;27.920;2023-04-16T06:35:23;11.73;;;5.65;;
22260;SDS011;11299;43.202;27.920;2023-04-16T06:37:48;10.82;;;5.93;;
22260;SDS011;11299;43.202;27.920;2023-04-16T06:40:14;13.43;;;6.13;;
22260;SDS011;11299;43.202;27.920;2023-04-16T06:42:41;11.93;;;5.55;;
22260;SDS011;11299;43.202;27.920;2023-04-16T06:45:06;11.75;;;5.60;;
22260;SDS011;11299;43.202;27.920;2023-04-16T06:47:33;14.80;;;6.72;;
22260;SDS011;11299;43.202;27.920;2023-04-16T06:49:58;10.82;;;6.55;;
22260;SDS011;11299;43.202;27.920;2023-04-16T06:52:25;14.18;;;5.70;;
22260;SDS011;11299;43.202;27.920;2023-04-16T06:54:51;12.18;;;5.50;;
22260;SDS011;11299;43.202;27.920;2023-04-16T06:57:16;10.70;;;5.28;;
22260;SDS011;11299;43.202;27.920;2023-04-16T06:59:41;16.75;;;6.80;;
22260;SDS011;11299;43.202;27.920;2023-04-16T07:02:10;13.02;;;6.63;;
22260;SDS011;11299;43.202;27.920;2023-04-16T07:04:35;13.88;;;5.57;;
22260;SDS011;11299;43.202;27.920;2023-04-16T07:07:01;12.30;;;5.75;;
22260;SDS011;11299;43.202;27.920;2023-04-16T07:09:26;9.70;;;5.47;;
22260;SDS011;11299;43.202;27.920;2023-04-16T07:11:52;12.80;;;5.60;;
22260;SDS011;11299;43.202;27.920;2023-04-16T07:14:18;9.00;;;5.43;;
22260;SDS011;11299;43.202;27.920;2023-04-16T07:16:43;10.65;;;5.30;;
22260;SDS011;11299;43.202;27.920;2023-04-16T07:19:09;9.50;;;5.57;;
22260;SDS011;11299;43.202;27.920;2023-04-16T07:21:35;11.65;;;5.50;;
22260;SDS011;11299;43.202;27.920;2023-04-16T07:24:01;12.00;;;5.85;;
22260;SDS011;11299;43.202;27.920;2023-04-16T07:26:26;15.82;;;6.78;;
22260;SDS011;11299;43.202;27.920;2023-04-16T07:28:52;12.15;;;5.85;;
22260;SDS011;11299;43.202;27.920;2023-04-16T07:31:17;11.43;;;6.30;;
22260;SDS011;11299;43.202;27.920;2023-04-16T07:33:43;8.43;;;6.43;;
22260;SDS011;11299;43.202;27.920;2023-04-16T07:36:08;12.10;;;6.25;;
22260;SDS011;11299;43.202;27.920;2023-04-16T07:38:35;12.57;;;6.80;;
22260;SDS011;11299;43.202;27.920;2023-04-16T07:41:00;10.52;;;6.32;;
22260;SDS011;11299;43.202;27.920;2023-04-16T07:43:26;12.48;;;6.55;;
22260;SDS011;11299;43.202;27.920;2023-04-16T07:45:51;13.02;;;6.47;;
22260;SDS011;11299;43.202;27.920;2023-04-16T07:48:17;11.60;;;6.70;;
22260;SDS011;11299;43.202;27.920;2023-04-16T07:50:42;11.73;;;6.28;;
22260;SDS011;11299;43.202;27.920;2023-04-16T07:53:08;10.05;;;6.05;;
22260;SDS011;11299;43.202;27.920;2023-04-16T07:55:33;9.82;;;6.05;;
22260;SDS011;11299;43.202;27.920;2023-04-16T07:57:59;11.30;;;5.88;;
22260;SDS011;11299;43.202;27.920;2023-04-16T08:00:24;12.15;;;6.20;;
22260;SDS011;11299;43.202;27.920;2023-04-16T08:02:50;10.80;;;5.43;;
22260;SDS011;11299;43.202;27.920;2023-04-16T08:05:16;11.40;;;6.13;;
22260;SDS011;11299;43.202;27.920;2023-04-16T08:07:41;11.50;;;6.45;;
22260;SDS011;11299;43.202;27.920;2023-04-16T08:10:07;10.88;;;5.85;;
22260;SDS011;11299;43.202;27.920;2023-04-16T08:12:32;11.23;;;6.50;;
22260;SDS011;11299;43.202;27.920;2023-04-16T08:14:59;8.45;;;5.93;;
22260;SDS011;11299;43.202;27.920;2023-04-16T08:17:25;10.45;;;6.55;;
22260;SDS011;11299;43.202;27.920;2023-04-16T08:19:52;11.32;;;5.63;;
22260;SDS011;11299;43.202;27.920;2023-04-16T08:22:17;9.45;;;6.18;;
22260;SDS011;11299;43.202;27.920;2023-04-16T08:24:43;11.70;;;6.05;;
22260;SDS011;11299;43.202;27.920;2023-04-16T08:27:09;10.32;;;6.35;;
22260;SDS011;11299;43.202;27.920;2023-04-16T08:29:36;9.55;;;5.63;;
22260;SDS011;11299;43.202;27.920;2023-04-16T08:32:01;11.75;;;6.00;;
22260;SDS011;11299;43.202;27.920;2023-04-16T08:34:27;9.38;;;6.07;;
22260;SDS011;11299;43.202;27.920;2023-04-16T08:36:52;10.80;;;5.60;;
22260;SDS011;11299;43.202;27.920;2023-04-16T08:39:18;11.40;;;5.93;;
22260;SDS011;11299;43.202;27.920;2023-04-16T08:41:44;11.48;;;5.38;;
22260;SDS011;11299;43.202;27.920;2023-04-16T08:44:22;11.85;;;5.22;;
22260;SDS011;11299;43.202;27.920;2023-04-16T08:46:52;10.55;;;5.13;;
22260;SDS011;11299;43.202;27.920;2023-04-16T08:49:22;12.70;;;5.43;;
22260;SDS011;11299;43.202;27.920;2023-04-16T08:51:50;14.75;;;5.78;;
22260;SDS011;11299;43.202;27.920;2023-04-16T08:56:54;9.73;;;5.28;;
22260;SDS011;11299;43.202;27.920;2023-04-16T08:59:22;10.52;;;4.97;;
22260;SDS011;11299;43.202;27.920;2023-04-16T09:01:49;7.88;;;5.55;;
22260;SDS011;11299;43.202;27.920;2023-04-16T09:04:16;11.43;;;5.43;;
22260;SDS011;11299;43.202;27.920;2023-04-16T09:06:43;9.05;;;5.43;;
22260;SDS011;11299;43.202;27.920;2023-04-16T09:09:10;14.38;;;6.07;;
22260;SDS011;11299;43.202;27.920;2023-04-16T09:11:37;8.68;;;4.80;;
22260;SDS011;11299;43.202;27.920;2023-04-16T09:14:03;12.07;;;5.53;;
22260;SDS011;11299;43.202;27.920;2023-04-16T09:16:33;15.30;;;5.30;;
22260;SDS011;11299;43.202;27.920;2023-04-16T09:18:59;11.07;;;5.20;;
22260;SDS011;11299;43.202;27.920;2023-04-16T09:21:24;8.48;;;5.57;;
22260;SDS011;11299;43.202;27.920;2023-04-16T09:23:51;8.90;;;5.10;;
22260;SDS011;11299;43.202;27.920;2023-04-16T09:26:17;10.43;;;5.45;;
22260;SDS011;11299;43.202;27.920;2023-04-16T09:28:46;9.15;;;5.70;;
22260;SDS011;11299;43.202;27.920;2023-04-16T09:31:13;14.70;;;5.90;;
22260;SDS011;11299;43.202;27.920;2023-04-16T09:33:40;9.95;;;6.00;;
22260;SDS011;11299;43.202;27.920;2023-04-16T09:36:09;10.98;;;6.28;;
22260;SDS011;11299;43.202;27.920;2023-04-16T09:38:45;8.52;;;5.97;;
22260;SDS011;11299;43.202;27.920;2023-04-16T09:41:12;8.73;;;5.65;;
22260;SDS011;11299;43.202;27.920;2023-04-16T09:43:40;10.60;;;5.70;;
22260;SDS011;11299;43.202;27.920;2023-04-16T09:46:06;8.88;;;5.18;;
22260;SDS011;11299;43.202;27.920;2023-04-16T09:48:36;7.80;;;4.65;;
22260;SDS011;11299;43.202;27.920;2023-04-16T09:51:02;8.60;;;5.97;;
22260;SDS011;11299;43.202;27.920;2023-04-16T09:53:30;7.03;;;5.05;;
22260;SDS011;11299;43.202;27.920;2023-04-16T09:56:00;7.00;;;5.13;;
22260;SDS011;11299;43.202;27.920;2023-04-16T09:58:27;8.30;;;5.60;;
22260;SDS011;11299;43.202;27.920;2023-04-16T10:03:32;11.13;;;5.32;;
22260;SDS011;11299;43.202;27.920;2023-04-16T10:06:15;14.50;;;5.10;;
22260;SDS011;11299;43.202;27.920;2023-04-16T10:08:49;8.77;;;5.10;;
22260;SDS011;11299;43.202;27.920;2023-04-16T10:11:17;6.38;;;5.00;;
22260;SDS011;11299;43.202;27.920;2023-04-16T10:13:44;8.70;;;5.22;;
22260;SDS011;11299;43.202;27.920;2023-04-16T10:16:10;8.27;;;5.20;;
22260;SDS011;11299;43.202;27.920;2023-04-16T10:18:36;8.27;;;4.70;;
22260;SDS011;11299;43.202;27.920;2023-04-16T10:21:06;7.15;;;4.68;;
22260;SDS011;11299;43.202;27.920;2023-04-16T10:23:32;11.23;;;5.05;;
22260;SDS011;11299;43.202;27.920;2023-04-16T10:25:59;7.22;;;4.70;;
22260;SDS011;11299;43.202;27.920;2023-04-16T10:28:25;7.07;;;5.30;;
22260;SDS011;11299;43.202;27.920;2023-04-16T10:30:53;14.32;;;5.22;;
22260;SDS011;11299;43.202;27.920;2023-04-16T10:33:20;8.00;;;5.28;;
22260;SDS011;11299;43.202;27.920;2023-04-16T10:35:48;8.45;;;5.20;;
22260;SDS011;11299;43.202;27.920;2023-04-16T10:38:25;9.57;;;5.88;;
22260;SDS011;11299;43.202;27.920;2023-04-16T10:40:58;14.82;;;8.82;;
22260;SDS011;11299;43.202;27.920;2023-04-16T10:43:27;13.45;;;6.75;;
22260;SDS011;11299;43.202;27.920;2023-04-16T10:45:54;11.95;;;7.57;;
22260;SDS011;11299;43.202;27.920;2023-04-16T10:48:19;10.32;;;6.32;;
22260;SDS011;11299;43.202;27.920;2023-04-16T10:50:55;9.27;;;5.60;;
22260;SDS011;11299;43.202;27.920;2023-04-16T10:53:25;15.57;;;6.50;;
22260;SDS011;11299;43.202;27.920;2023-04-16T10:55:58;12.00;;;6.07;;
22260;SDS011;11299;43.202;27.920;2023-04-16T10:58:36;11.88;;;5.70;;
22260;SDS011;11299;43.202;27.920;2023-04-16T11:01:09;8.38;;;5.28;;
22260;SDS011;11299;43.202;27.920;2023-04-16T11:03:45;11.45;;;5.55;;
22260;SDS011;11299;43.202;27.920;2023-04-16T11:06:14;14.57;;;5.90;;
22260;SDS011;11299;43.202;27.920;2023-04-16T11:08:44;13.13;;;5.38;;
22260;SDS011;11299;43.202;27.920;2023-04-16T11:11:11;8.38;;;4.55;;
22260;SDS011;11299;43.202;27.920;2023-04-16T11:13:37;17.90;;;5.40;;
22260;SDS011;11299;43.202;27.920;2023-04-16T11:16:05;11.13;;;5.22;;
22260;SDS011;11299;43.202;27.920;2023-04-16T11:18:31;12.80;;;5.47;;
22260;SDS011;11299;43.202;27.920;2023-04-16T11:20:56;11.57;;;5.03;;
22260;SDS011;11299;43.202;27.920;2023-04-16T11:23:22;12.60;;;5.25;;
22260;SDS011;11299;43.202;27.920;2023-04-16T11:25:48;11.07;;;5.57;;
22260;SDS011;11299;43.202;27.920;2023-04-16T11:28:19;10.57;;;4.97;;
22260;SDS011;11299;43.202;27.920;2023-04-16T11:30:45;15.07;;;5.95;;
22260;SDS011;11299;43.202;27.920;2023-04-16T11:33:10;10.95;;;5.47;;
22260;SDS011;11299;43.202;27.920;2023-04-16T11:35:38;11.98;;;5.32;;
22260;SDS011;11299;43.202;27.920;2023-04-16T11:38:05;9.68;;;4.90;;
22260;SDS011;11299;43.202;27.920;2023-04-16T11:40:31;14.30;;;5.50;;
22260;SDS011;11299;43.202;27.920;2023-04-16T11:43:01;9.07;;;5.20;;
22260;SDS011;11299;43.202;27.920;2023-04-16T11:45:28;14.10;;;5.53;;
22260;SDS011;11299;43.202;27.920;2023-04-16T11:47:53;9.45;;;4.80;;
22260;SDS011;11299;43.202;27.920;2023-04-16T11:50:22;9.82;;;5.45;;
22260;SDS011;11299;43.202;27.920;2023-04-16T11:52:48;10.00;;;4.70;;
22260;SDS011;11299;43.202;27.920;2023-04-16T11:55:14;10.88;;;4.47;;
22260;SDS011;11299;43.202;27.920;2023-04-16T11:57:40;11.30;;;5.07;;
22260;SDS011;11299;43.202;27.920;2023-04-16T12:00:06;12.95;;;4.60;;
22260;SDS011;11299;43.202;27.920;2023-04-16T12:02:53;10.25;;;5.00;;
22260;SDS011;11299;43.202;27.920;2023-04-16T12:05:26;11.25;;;4.55;;
22260;SDS011;11299;43.202;27.920;2023-04-16T12:08:00;11.65;;;4.65;;
22260;SDS011;11299;43.202;27.920;2023-04-16T12:10:27;8.52;;;4.50;;
22260;SDS011;11299;43.202;27.920;2023-04-16T12:12:53;11.60;;;4.57;;
22260;SDS011;11299;43.202;27.920;2023-04-16T12:15:20;12.73;;;5.05;;
22260;SDS011;11299;43.202;27.920;2023-04-16T12:17:45;11.90;;;4.85;;
22260;SDS011;11299;43.202;27.920;2023-04-16T12:20:12;9.57;;;5.40;;
22260;SDS011;11299;43.202;27.920;2023-04-16T12:22:45;14.48;;;4.53;;
22260;SDS011;11299;43.202;27.920;2023-04-16T12:25:13;12.45;;;4.65;;
22260;SDS011;11299;43.202;27.920;2023-04-16T12:28:00;11.35;;;4.47;;
22260;SDS011;11299;43.202;27.920;2023-04-16T12:30:25;10.88;;;4.32;;
22260;SDS011;11299;43.202;27.920;2023-04-16T12:32:52;12.65;;;4.93;;
22260;SDS011;11299;43.202;27.920;2023-04-16T12:35:37;14.15;;;4.95;;
22260;SDS011;11299;43.202;27.920;2023-04-16T12:38:05;16.33;;;5.05;;
22260;SDS011;11299;43.202;27.920;2023-04-16T12:40:31;14.18;;;5.03;;
22260;SDS011;11299;43.202;27.920;2023-04-16T12:42:56;7.35;;;4.53;;
22260;SDS011;11299;43.202;27.920;2023-04-16T12:45:22;12.63;;;4.50;;
22260;SDS011;11299;43.202;27.920;2023-04-16T12:47:48;8.50;;;4.38;;
22260;SDS011;11299;43.202;27.920;2023-04-16T12:50:14;15.65;;;5.10;;
22260;SDS011;11299;43.202;27.920;2023-04-16T12:52:40;8.65;;;4.03;;
22260;SDS011;11299;43.202;27.920;2023-04-16T12:55:05;10.65;;;4.60;;
22260;SDS011;11299;43.202;27.920;2023-04-16T12:57:31;10.30;;;4.85;;
22260;SDS011;11299;43.202;27.920;2023-04-16T12:59:57;12.25;;;4.85;;
22260;SDS011;11299;43.202;27.920;2023-04-16T13:02:23;10.68;;;5.13;;
22260;SDS011;11299;43.202;27.920;2023-04-16T13:04:52;9.52;;;4.97;;
22260;SDS011;11299;43.202;27.920;2023-04-16T13:07:18;12.00;;;4.65;;
22260;SDS011;11299;43.202;27.920;2023-04-16T13:09:45;10.60;;;4.55;;
22260;SDS011;11299;43.202;27.920;2023-04-16T13:12:11;12.02;;;5.07;;
22260;SDS011;11299;43.202;27.920;2023-04-16T13:14:36;15.00;;;5.60;;
22260;SDS011;11299;43.202;27.920;2023-04-16T13:17:02;13.75;;;5.03;;
22260;SDS011;11299;43.202;27.920;2023-04-16T13:19:28;8.65;;;4.43;;
22260;SDS011;11299;43.202;27.920;2023-04-16T13:21:54;16.77;;;6.47;;
22260;SDS011;11299;43.202;27.920;2023-04-16T13:24:19;12.40;;;5.03;;
22260;SDS011;11299;43.202;27.920;2023-04-16T13:26:45;11.13;;;4.78;;
22260;SDS011;11299;43.202;27.920;2023-04-16T13:29:11;13.23;;;4.60;;
22260;SDS011;11299;43.202;27.920;2023-04-16T13:31:36;7.85;;;4.43;;
22260;SDS011;11299;43.202;27.920;2023-04-16T13:34:02;10.43;;;4.78;;
22260;SDS011;11299;43.202;27.920;2023-04-16T13:36:28;12.40;;;4.90;;
22260;SDS011;11299;43.202;27.920;2023-04-16T13:38:56;14.68;;;6.60;;
22260;SDS011;11299;43.202;27.920;2023-04-16T13:41:22;13.27;;;5.97;;
22260;SDS011;11299;43.202;27.920;2023-04-16T13:43:48;11.27;;;4.85;;
22260;SDS011;11299;43.202;27.920;2023-04-16T13:46:13;11.80;;;7.57;;
22260;SDS011;11299;43.202;27.920;2023-04-16T13:48:39;12.07;;;7.00;;
22260;SDS011;11299;43.202;27.920;2023-04-16T13:51:04;14.20;;;4.80;;
22260;SDS011;11299;43.202;27.920;2023-04-16T13:53:30;11.45;;;5.40;;
22260;SDS011;11299;43.202;27.920;2023-04-16T13:55:55;13.93;;;6.00;;
22260;SDS011;11299;43.202;27.920;2023-04-16T13:58:21;17.55;;;7.35;;
22260;SDS011;11299;43.202;27.920;2023-04-16T14:00:46;15.65;;;6.30;;
22260;SDS011;11299;43.202;27.920;2023-04-16T14:03:12;12.25;;;5.60;;
22260;SDS011;11299;43.202;27.920;2023-04-16T14:05:37;11.63;;;5.28;;
22260;SDS011;11299;43.202;27.920;2023-04-16T14:08:03;8.57;;;4.90;;
22260;SDS011;11299;43.202;27.920;2023-04-16T14:10:29;11.77;;;5.22;;
22260;SDS011;11299;43.202;27.920;2023-04-16T14:12:55;14.43;;;5.88;;
22260;SDS011;11299;43.202;27.920;2023-04-16T14:15:21;15.18;;;6.43;;
22260;SDS011;11299;43.202;27.920;2023-04-16T14:17:46;12.07;;;5.50;;
22260;SDS011;11299;43.202;27.920;2023-04-16T14:20:12;13.82;;;7.60;;
22260;SDS011;11299;43.202;27.920;2023-04-16T14:22:38;15.70;;;7.43;;
22260;SDS011;11299;43.202;27.920;2023-04-16T14:25:04;14.75;;;6.43;;
22260;SDS011;11299;43.202;27.920;2023-04-16T14:27:30;27.20;;;15.85;;